Time;durP1;ratioP1;P1;durP2;ratioP2;P2;SDS_P1;SDS_P2;PMS_P1;PMS_P2;Temp;Humidity;BMP_temperature;BMP_pressure;BME280_temperature;BME280_humidity;BME280_pressure;Samples;Min_cycle;Max_cycle;Signal;HPM_P1;HPM_P2
2021/03/13 00:00:01;;;;;;;;;;;6.70;99.90;;;;;;5012619;28;19910;-76
2021/03/13 00:02:26;;;;;;;;;;;6.70;99.90;;;;;;5011398;28;19917;-76
2021/03/13 00:04:52;;;;;;;;;;;6.80;99.90;;;;;;5011251;28;19910;-76
2021/03/13 00:07:17;;;;;;;;;;;6.70;99.90;;;;;;5012430;28;20005;-76
2021/03/13 00:09:45;;;;;;;;;;;6.80;99.90;;;;;;5012069;28;19909;-79
2021/03/13 00:12:10;;;;;;;;;;;6.80;99.90;;;;;;5012515;28;19913;-76
2021/03/13 00:14:36;;;;;;;;;;;6.70;99.90;;;;;;5012632;28;19917;-77
2021/03/13 00:17:01;;;;;;;;;;;6.70;99.90;;;;;;5013044;28;19909;-77
2021/03/13 00:19:27;;;;;;;;;;;6.70;99.90;;;;;;5013845;28;20004;-78
2021/03/13 00:21:52;;;;;;;;;;;6.70;99.90;;;;;;5012607;28;19913;-77
2021/03/13 00:24:17;;;;;;;;;;;6.60;99.90;;;;;;5010769;28;19909;-77
2021/03/13 00:26:43;;;;;;;;;;;6.60;99.90;;;;;;5012396;28;19976;-78
2021/03/13 00:29:08;;;;;;;;;;;6.50;99.90;;;;;;5011209;28;19916;-77
2021/03/13 00:31:34;;;;;;;;;;;6.50;99.90;;;;;;5014318;28;19909;-76
2021/03/13 00:33:59;;;;;;;;;;;6.50;99.90;;;;;;5014709;28;19925;-77
2021/03/13 00:36:25;;;;;;;;;;;6.50;99.90;;;;;;5015078;28;20006;-78
2021/03/13 00:38:50;;;;;;;;;;;6.50;99.90;;;;;;5014663;28;19916;-77
2021/03/13 00:41:16;;;;;;;;;;;6.40;99.90;;;;;;5015945;28;19924;-77
2021/03/13 00:43:41;;;;;;;;;;;6.40;99.90;;;;;;5014642;28;20339;-77
2021/03/13 00:46:06;;;;;;;;;;;6.50;99.90;;;;;;5015883;28;19936;-77
2021/03/13 00:48:32;;;;;;;;;;;6.60;99.90;;;;;;5014764;28;20009;-77
2021/03/13 00:50:57;;;;;;;;;;;6.60;99.90;;;;;;5015949;28;19963;-77
2021/03/13 00:53:23;;;;;;;;;;;6.60;99.90;;;;;;5014685;28;20283;-77
2021/03/13 00:55:48;;;;;;;;;;;6.60;99.90;;;;;;5014262;28;19932;-77
2021/03/13 00:58:14;;;;;;;;;;;6.60;99.90;;;;;;5014334;28;19916;-77
2021/03/13 01:00:39;;;;;;;;;;;6.60;99.90;;;;;;5016044;28;19992;-77
2021/03/13 01:03:05;;;;;;;;;;;6.70;99.90;;;;;;5014475;28;19920;-77
2021/03/13 01:05:31;;;;;;;;;;;6.60;99.90;;;;;;5015313;28;19913;-77
2021/03/13 01:07:56;;;;;;;;;;;6.50;99.90;;;;;;5015536;28;19967;-77
2021/03/13 01:10:22;;;;;;;;;;;6.60;99.90;;;;;;5016693;28;20372;-78
2021/03/13 01:12:47;;;;;;;;;;;6.60;99.90;;;;;;5016581;28;19917;-77
2021/03/13 01:15:16;;;;;;;;;;;6.60;99.90;;;;;;5017163;28;19963;-77
2021/03/13 01:17:41;;;;;;;;;;;6.60;99.90;;;;;;5017875;28;19941;-78
2021/03/13 01:20:08;;;;;;;;;;;6.60;99.90;;;;;;5016491;28;19939;-78
2021/03/13 01:22:34;;;;;;;;;;;6.60;99.90;;;;;;5017709;28;20016;-78
2021/03/13 01:24:59;;;;;;;;;;;6.70;99.90;;;;;;5014989;28;19963;-78
2021/03/13 01:27:25;;;;;;;;;;;6.60;99.90;;;;;;5015134;28;19916;-78
2021/03/13 01:29:50;;;;;;;;;;;6.70;99.90;;;;;;5014899;28;19988;-77
2021/03/13 01:32:15;;;;;;;;;;;6.70;99.90;;;;;;5013722;28;19964;-78
2021/03/13 01:34:41;;;;;;;;;;;6.70;99.90;;;;;;5014833;28;19949;-76
2021/03/13 01:37:06;;;;;;;;;;;6.60;99.90;;;;;;5013686;28;19975;-77
2021/03/13 01:39:32;;;;;;;;;;;6.60;99.90;;;;;;5014954;28;19913;-77
2021/03/13 01:41:57;;;;;;;;;;;6.60;99.90;;;;;;5014523;28;20008;-78
2021/03/13 01:44:23;;;;;;;;;;;6.70;99.90;;;;;;5013433;28;19932;-77
2021/03/13 01:46:48;;;;;;;;;;;6.80;99.90;;;;;;5014870;28;19936;-77
2021/03/13 01:49:17;;;;;;;;;;;6.70;99.90;;;;;;5014719;28;19909;-77
2021/03/13 01:51:42;;;;;;;;;;;6.80;99.90;;;;;;5014695;28;20276;-77
2021/03/13 01:54:08;;;;;;;;;;;6.80;99.90;;;;;;5014423;28;19916;-77
2021/03/13 01:56:34;;;;;;;;;;;6.80;99.90;;;;;;5013426;28;20331;-77
2021/03/13 01:59:00;;;;;;;;;;;6.80;99.90;;;;;;5013390;28;19909;-77
2021/03/13 02:01:25;;;;;;;;;;;6.80;99.90;;;;;;5014897;28;19909;-77
2021/03/13 02:03:51;;;;;;;;;;;6.80;99.90;;;;;;5014355;28;19909;-77
2021/03/13 02:06:16;;;;;;;;;;;6.80;99.90;;;;;;5022683;28;20397;-76
2021/03/13 02:08:51;;;;;;;;;;;6.80;99.90;;;;;;5026108;28;19917;-77
2021/03/13 02:11:28;;;;;;;;;;;6.80;99.90;;;;;;5027973;28;20007;-77
2021/03/13 02:14:02;;;;;;;;;;;6.90;99.90;;;;;;5017741;28;19914;-77
2021/03/13 02:16:33;;;;;;;;;;;6.90;99.90;;;;;;5014690;28;19939;-76
2021/03/13 02:19:05;;;;;;;;;;;6.90;99.90;;;;;;5013091;28;19910;-77
2021/03/13 02:21:43;;;;;;;;;;;6.90;99.90;;;;;;5014357;28;19909;-78
2021/03/13 02:24:15;;;;;;;;;;;6.90;99.90;;;;;;5012845;28;20024;-76
2021/03/13 02:26:59;;;;;;;;;;;6.90;99.90;;;;;;5013278;28;19948;-77
2021/03/13 02:29:33;;;;;;;;;;;6.90;99.90;;;;;;5013115;28;20399;-78
2021/03/13 02:32:01;;;;;;;;;;;6.90;99.90;;;;;;5013884;28;20368;-77
2021/03/13 02:34:31;;;;;;;;;;;6.90;99.90;;;;;;5013722;28;19909;-78
2021/03/13 02:36:59;;;;;;;;;;;6.90;99.90;;;;;;5012555;28;19954;-77
2021/03/13 02:39:27;;;;;;;;;;;6.90;99.90;;;;;;5013599;28;19917;-76
2021/03/13 02:41:57;;;;;;;;;;;6.90;99.90;;;;;;5013656;28;19913;-77
2021/03/13 02:44:23;;;;;;;;;;;6.80;99.90;;;;;;5012204;28;19917;-78
2021/03/13 02:46:49;;;;;;;;;;;6.80;99.90;;;;;;5012538;28;19913;-76
2021/03/13 02:49:15;;;;;;;;;;;6.80;99.90;;;;;;5013381;28;19953;-77
2021/03/13 02:51:42;;;;;;;;;;;6.90;99.90;;;;;;5012288;28;19910;-77
2021/03/13 02:54:08;;;;;;;;;;;7.00;99.90;;;;;;5011750;28;19913;-79
2021/03/13 02:56:35;;;;;;;;;;;7.00;99.90;;;;;;5013472;28;19910;-78
2021/03/13 02:59:01;;;;;;;;;;;7.00;99.90;;;;;;5013791;28;20316;-77
2021/03/13 03:01:27;;;;;;;;;;;7.00;99.90;;;;;;5012314;28;20254;-77
2021/03/13 03:03:53;;;;;;;;;;;6.90;99.90;;;;;;5013320;28;19917;-77
2021/03/13 03:06:20;;;;;;;;;;;6.90;99.90;;;;;;5013293;28;20439;-77
2021/03/13 03:08:49;;;;;;;;;;;6.90;99.90;;;;;;5012436;28;19917;-77
2021/03/13 03:11:19;;;;;;;;;;;6.90;99.90;;;;;;5011064;28;19921;-77
2021/03/13 03:13:44;;;;;;;;;;;7.00;99.90;;;;;;5012681;28;19906;-78
2021/03/13 03:16:10;;;;;;;;;;;7.00;99.90;;;;;;5011261;28;20347;-77
2021/03/13 03:18:36;;;;;;;;;;;7.00;99.90;;;;;;5013229;28;19906;-77
2021/03/13 03:21:02;;;;;;;;;;;6.90;99.90;;;;;;5013059;28;19992;-77
2021/03/13 03:23:28;;;;;;;;;;;6.80;99.90;;;;;;5011725;28;20376;-76
2021/03/13 03:25:54;;;;;;;;;;;6.70;99.90;;;;;;5012675;28;19905;-78
2021/03/13 03:28:21;;;;;;;;;;;6.60;99.90;;;;;;5012810;28;19905;-78
2021/03/13 03:30:47;;;;;;;;;;;6.60;99.90;;;;;;5012986;28;19905;-77
2021/03/13 03:33:13;;;;;;;;;;;6.60;99.90;;;;;;5012826;28;20357;-77
2021/03/13 03:35:38;;;;;;;;;;;6.50;99.90;;;;;;5012515;28;19932;-77
2021/03/13 03:38:04;;;;;;;;;;;6.50;99.90;;;;;;5011499;28;19932;-78
2021/03/13 03:40:31;;;;;;;;;;;6.60;99.90;;;;;;5012646;28;19905;-77
2021/03/13 03:43:04;;;;;;;;;;;6.50;99.90;;;;;;5012670;28;19909;-77
2021/03/13 03:45:31;;;;;;;;;;;6.50;99.90;;;;;;5011196;28;20261;-77
2021/03/13 03:47:56;;;;;;;;;;;6.50;99.90;;;;;;5012692;28;19905;-77
2021/03/13 03:50:23;;;;;;;;;;;6.60;99.90;;;;;;5011639;28;19912;-76
2021/03/13 03:52:50;;;;;;;;;;;6.60;99.90;;;;;;5012667;28;19905;-76
2021/03/13 03:55:17;;;;;;;;;;;6.70;99.90;;;;;;5012446;28;19956;-77
2021/03/13 03:57:43;;;;;;;;;;;6.70;99.90;;;;;;5011368;28;19912;-77
2021/03/13 04:00:09;;;;;;;;;;;6.80;99.90;;;;;;5012905;28;20368;-77
2021/03/13 04:02:35;;;;;;;;;;;6.80;99.90;;;;;;4994835;28;20434;-76
2021/03/13 04:05:01;;;;;;;;;;;6.90;99.90;;;;;;5014296;28;19905;-79
2021/03/13 04:07:27;;;;;;;;;;;6.90;99.90;;;;;;5017312;28;19959;-79
2021/03/13 04:09:52;;;;;;;;;;;6.90;99.90;;;;;;5017886;28;19905;-78
2021/03/13 04:12:18;;;;;;;;;;;6.90;99.90;;;;;;5016090;28;19905;-79
2021/03/13 04:14:45;;;;;;;;;;;6.90;99.90;;;;;;5016273;28;20333;-79
2021/03/13 04:17:11;;;;;;;;;;;6.90;99.90;;;;;;5015846;28;19906;-79
2021/03/13 04:19:36;;;;;;;;;;;7.00;99.90;;;;;;5016663;28;19928;-79
2021/03/13 04:22:02;;;;;;;;;;;7.00;99.90;;;;;;5016106;28;20357;-77
2021/03/13 04:24:28;;;;;;;;;;;7.00;99.90;;;;;;5014085;28;20411;-77
2021/03/13 04:26:54;;;;;;;;;;;7.10;99.90;;;;;;5016346;28;19906;-76
2021/03/13 04:29:20;;;;;;;;;;;7.10;99.90;;;;;;5015093;28;19916;-76
2021/03/13 04:31:46;;;;;;;;;;;7.10;99.90;;;;;;5015104;28;19905;-77
2021/03/13 04:34:12;;;;;;;;;;;7.10;99.90;;;;;;5015070;28;19959;-77
2021/03/13 04:36:37;;;;;;;;;;;7.10;99.90;;;;;;5015633;28;20004;-78
2021/03/13 04:39:04;;;;;;;;;;;7.10;99.90;;;;;;5014450;28;19952;-77
2021/03/13 04:41:30;;;;;;;;;;;7.10;99.90;;;;;;5015200;28;19913;-77
2021/03/13 04:43:57;;;;;;;;;;;7.10;99.90;;;;;;5013456;28;20391;-77
2021/03/13 04:46:23;;;;;;;;;;;7.10;99.90;;;;;;5015382;28;19917;-77
2021/03/13 04:48:49;;;;;;;;;;;7.10;99.90;;;;;;5013545;28;20324;-77
2021/03/13 04:51:17;;;;;;;;;;;7.20;99.90;;;;;;5014966;28;19956;-76
2021/03/13 04:53:44;;;;;;;;;;;7.20;99.90;;;;;;5015320;28;20337;-78
2021/03/13 04:56:09;;;;;;;;;;;7.20;99.90;;;;;;5014472;28;19952;-77
2021/03/13 04:58:35;;;;;;;;;;;7.20;99.90;;;;;;5015179;28;20360;-78
2021/03/13 05:01:00;;;;;;;;;;;7.10;99.90;;;;;;5014259;28;20349;-77
2021/03/13 05:03:26;;;;;;;;;;;7.20;99.90;;;;;;5014042;28;19910;-77
2021/03/13 05:05:51;;;;;;;;;;;7.10;99.90;;;;;;5015369;28;19905;-77
2021/03/13 05:08:17;;;;;;;;;;;7.00;99.90;;;;;;5016739;28;24275;-77
2021/03/13 05:10:42;;;;;;;;;;;7.10;99.90;;;;;;5025038;28;19906;-77
2021/03/13 05:13:08;;;;;;;;;;;7.10;99.90;;;;;;5027145;28;19912;-77
2021/03/13 05:15:33;;;;;;;;;;;7.10;99.90;;;;;;5027749;28;19952;-77
2021/03/13 05:17:59;;;;;;;;;;;7.20;99.90;;;;;;5020644;28;19948;-77
2021/03/13 05:20:24;;;;;;;;;;;7.20;99.90;;;;;;5015255;28;19913;-76
2021/03/13 05:22:51;;;;;;;;;;;7.20;99.90;;;;;;5015299;28;19913;-77
2021/03/13 05:25:17;;;;;;;;;;;7.30;99.90;;;;;;5015028;28;19912;-77
2021/03/13 05:27:43;;;;;;;;;;;7.30;99.90;;;;;;5013645;28;19910;-78
2021/03/13 05:30:09;;;;;;;;;;;7.40;99.90;;;;;;5015144;28;19997;-77
2021/03/13 05:32:35;;;;;;;;;;;7.40;99.90;;;;;;5031954;28;19909;-77
2021/03/13 05:35:01;;;;;;;;;;;7.40;99.90;;;;;;5034421;28;19911;-76
2021/03/13 05:37:27;;;;;;;;;;;7.50;99.90;;;;;;5032776;28;20004;-77
2021/03/13 05:39:53;;;;;;;;;;;7.40;99.90;;;;;;5033682;28;20361;-76
2021/03/13 05:42:18;;;;;;;;;;;7.40;99.90;;;;;;5032178;28;19992;-77
2021/03/13 05:44:44;;;;;;;;;;;7.40;99.90;;;;;;5031859;28;24056;-78
2021/03/13 05:47:09;;;;;;;;;;;7.50;99.90;;;;;;5032068;28;24070;-78
2021/03/13 05:49:37;;;;;;;;;;;7.50;99.90;;;;;;5031328;28;25172;-77
2021/03/13 05:52:04;;;;;;;;;;;7.50;99.90;;;;;;5032184;28;24059;-79
2021/03/13 05:54:30;;;;;;;;;;;7.50;99.90;;;;;;5033190;28;19948;-79
2021/03/13 05:56:58;;;;;;;;;;;7.50;99.90;;;;;;5031258;28;19912;-77
2021/03/13 05:59:24;;;;;;;;;;;7.50;99.90;;;;;;5024561;28;19920;-77
2021/03/13 06:01:49;;;;;;;;;;;7.60;99.90;;;;;;5031964;28;24057;-78
2021/03/13 06:04:15;;;;;;;;;;;7.60;99.90;;;;;;5031731;28;19912;-77
2021/03/13 06:06:41;;;;;;;;;;;7.60;99.90;;;;;;5032130;28;20155;-77
2021/03/13 06:09:09;;;;;;;;;;;7.70;99.90;;;;;;5032817;28;19971;-76
2021/03/13 06:11:35;;;;;;;;;;;7.70;99.90;;;;;;5030990;28;24074;-76
2021/03/13 06:14:00;;;;;;;;;;;7.70;99.90;;;;;;5030486;28;19954;-77
2021/03/13 06:16:26;;;;;;;;;;;7.70;99.90;;;;;;5031448;28;19912;-76
2021/03/13 06:18:52;;;;;;;;;;;7.80;99.90;;;;;;5029884;28;19984;-78
2021/03/13 06:21:24;;;;;;;;;;;7.80;99.90;;;;;;5031943;28;19909;-76
2021/03/13 06:23:52;;;;;;;;;;;7.80;99.90;;;;;;5031365;28;19913;-76
2021/03/13 06:26:18;;;;;;;;;;;7.80;99.90;;;;;;5025955;28;19919;-75
2021/03/13 06:28:43;;;;;;;;;;;7.80;99.90;;;;;;5029846;28;19987;-77
2021/03/13 06:31:13;;;;;;;;;;;7.90;99.90;;;;;;5031978;28;20351;-76
2021/03/13 06:33:39;;;;;;;;;;;7.90;99.90;;;;;;5030797;28;19909;-76
2021/03/13 06:36:06;;;;;;;;;;;8.00;99.90;;;;;;5030708;28;19944;-75
2021/03/13 06:38:33;;;;;;;;;;;8.00;99.90;;;;;;5032211;28;20395;-76
2021/03/13 06:41:09;;;;;;;;;;;8.00;99.90;;;;;;5032240;28;20383;-76
2021/03/13 06:43:35;;;;;;;;;;;8.10;99.90;;;;;;5030716;28;19913;-77
2021/03/13 06:46:02;;;;;;;;;;;8.20;99.90;;;;;;5030585;28;19905;-76
2021/03/13 06:48:38;;;;;;;;;;;8.20;99.90;;;;;;5031026;28;20387;-75
2021/03/13 06:51:14;;;;;;;;;;;8.20;99.90;;;;;;5031309;28;24059;-77
2021/03/13 06:53:39;;;;;;;;;;;8.20;99.90;;;;;;5030076;28;19905;-76
2021/03/13 06:56:08;;;;;;;;;;;8.30;99.90;;;;;;5031532;28;19905;-77
2021/03/13 06:58:34;;;;;;;;;;;8.30;99.90;;;;;;5032045;28;24115;-77
2021/03/13 07:01:03;;;;;;;;;;;8.30;99.90;;;;;;5030418;28;19967;-75
2021/03/13 07:03:29;;;;;;;;;;;8.50;99.90;;;;;;5031634;28;25146;-77
2021/03/13 07:05:55;;;;;;;;;;;8.60;99.90;;;;;;5031596;28;24174;-76
2021/03/13 07:08:28;;;;;;;;;;;8.60;99.90;;;;;;5031496;28;20011;-76
2021/03/13 07:11:03;;;;;;;;;;;8.70;99.90;;;;;;5030068;28;20280;-76
2021/03/13 07:13:32;;;;;;;;;;;8.70;99.90;;;;;;5031473;28;19905;-76
2021/03/13 07:16:16;;;;;;;;;;;8.70;99.90;;;;;;5029923;28;20490;-76
2021/03/13 07:18:42;;;;;;;;;;;8.80;99.90;;;;;;5031054;28;19905;-76
2021/03/13 07:21:07;;;;;;;;;;;8.90;99.90;;;;;;5032848;28;19913;-75
2021/03/13 07:23:33;;;;;;;;;;;9.00;99.90;;;;;;5032928;28;19958;-76
2021/03/13 07:25:58;;;;;;;;;;;9.10;99.90;;;;;;5030721;28;20380;-76
2021/03/13 07:28:24;;;;;;;;;;;9.20;99.90;;;;;;5031067;28;20003;-76
2021/03/13 07:30:50;;;;;;;;;;;9.10;99.90;;;;;;5032491;28;20368;-76
2021/03/13 07:33:17;;;;;;;;;;;9.20;99.90;;;;;;5031053;28;20364;-75
2021/03/13 07:35:53;;;;;;;;;;;9.20;99.90;;;;;;5030660;28;19905;-76
2021/03/13 07:38:21;;;;;;;;;;;9.20;99.90;;;;;;5032204;28;19916;-76
2021/03/13 07:40:46;;;;;;;;;;;9.30;99.90;;;;;;5032073;28;19905;-76
2021/03/13 07:43:13;;;;;;;;;;;9.40;99.90;;;;;;5030704;28;19915;-76
2021/03/13 07:45:39;;;;;;;;;;;9.40;99.90;;;;;;5030445;28;19916;-76
2021/03/13 07:48:05;;;;;;;;;;;9.60;99.90;;;;;;5032159;28;19992;-76
2021/03/13 07:50:30;;;;;;;;;;;9.60;99.90;;;;;;5031372;28;19931;-76
2021/03/13 07:52:56;;;;;;;;;;;9.50;99.90;;;;;;5031573;28;19909;-76
2021/03/13 07:55:24;;;;;;;;;;;9.40;99.90;;;;;;5031192;28;19909;-75
2021/03/13 07:57:50;;;;;;;;;;;9.30;99.90;;;;;;5031620;28;20075;-76
2021/03/13 08:00:16;;;;;;;;;;;9.30;99.90;;;;;;5029371;28;19942;-76
2021/03/13 08:02:42;;;;;;;;;;;9.30;99.90;;;;;;5029751;28;19962;-77
2021/03/13 08:05:17;;;;;;;;;;;9.30;99.90;;;;;;5029340;28;20317;-76
2021/03/13 08:07:55;;;;;;;;;;;9.40;99.90;;;;;;5029179;28;20372;-76
2021/03/13 08:10:38;;;;;;;;;;;9.40;99.90;;;;;;5030862;28;19905;-76
2021/03/13 08:13:04;;;;;;;;;;;9.40;99.90;;;;;;5025362;28;24737;-76
2021/03/13 08:15:29;;;;;;;;;;;9.50;99.90;;;;;;5011602;28;19905;-76
2021/03/13 08:17:55;;;;;;;;;;;9.60;99.90;;;;;;5013063;28;19912;-76
2021/03/13 08:20:28;;;;;;;;;;;9.70;99.90;;;;;;5025333;28;19913;-75
2021/03/13 08:23:12;;;;;;;;;;;9.80;99.90;;;;;;5030132;28;19978;-76
2021/03/13 08:25:57;;;;;;;;;;;9.90;99.90;;;;;;5010079;28;20284;-77
2021/03/13 08:28:41;;;;;;;;;;;10.00;99.90;;;;;;5017711;28;19908;-76
2021/03/13 08:31:21;;;;;;;;;;;10.10;99.90;;;;;;5032584;28;20052;-75
2021/03/13 08:33:47;;;;;;;;;;;10.20;99.90;;;;;;5032255;28;20047;-76
2021/03/13 08:36:32;;;;;;;;;;;10.20;99.90;;;;;;5030492;28;20050;-76
2021/03/13 08:38:58;;;;;;;;;;;10.10;99.90;;;;;;5026648;28;20030;-77
2021/03/13 08:41:42;;;;;;;;;;;10.10;99.90;;;;;;5031380;28;20030;-75
2021/03/13 08:44:08;;;;;;;;;;;10.00;99.90;;;;;;5031268;28;20016;-76
2021/03/13 08:46:47;;;;;;;;;;;9.90;99.90;;;;;;5031506;28;20404;-76
2021/03/13 08:49:34;;;;;;;;;;;9.90;99.90;;;;;;5011451;28;19912;-75
2021/03/13 08:52:06;;;;;;;;;;;9.80;99.90;;;;;;5013533;28;20443;-76
2021/03/13 08:54:37;;;;;;;;;;;9.80;99.90;;;;;;5026666;28;19912;-76
2021/03/13 08:57:06;;;;;;;;;;;9.90;99.90;;;;;;5018407;28;24072;-76
2021/03/13 08:59:32;;;;;;;;;;;10.50;99.90;;;;;;5017242;28;20318;-77
2021/03/13 09:02:07;;;;;;;;;;;11.00;99.90;;;;;;5018804;28;19917;-77
2021/03/13 09:04:34;;;;;;;;;;;11.00;99.90;;;;;;5021841;28;20048;-77
2021/03/13 09:07:02;;;;;;;;;;;10.90;99.90;;;;;;5025524;28;20129;-76
2021/03/13 09:09:29;;;;;;;;;;;10.60;99.90;;;;;;5022933;28;19912;-76
2021/03/13 09:11:55;;;;;;;;;;;10.50;99.90;;;;;;5018294;28;19999;-75
2021/03/13 09:14:21;;;;;;;;;;;10.50;99.90;;;;;;5019939;28;20101;-76
2021/03/13 09:16:46;;;;;;;;;;;10.50;99.90;;;;;;5024839;28;19948;-76
2021/03/13 09:19:13;;;;;;;;;;;10.70;99.90;;;;;;5023421;28;19912;-76
2021/03/13 09:21:46;;;;;;;;;;;10.70;99.90;;;;;;5021693;28;20380;-76
2021/03/13 09:24:13;;;;;;;;;;;10.70;99.90;;;;;;5021461;28;19909;-77
2021/03/13 09:26:38;;;;;;;;;;;10.60;99.90;;;;;;5032322;28;19916;-76
2021/03/13 09:29:04;;;;;;;;;;;10.60;99.90;;;;;;5033481;28;20021;-77
2021/03/13 09:31:30;;;;;;;;;;;10.70;99.90;;;;;;5034650;28;19905;-76
2021/03/13 09:34:14;;;;;;;;;;;10.60;99.90;;;;;;5033311;28;20372;-76
2021/03/13 09:36:39;;;;;;;;;;;10.50;99.90;;;;;;5035558;28;24148;-75
2021/03/13 09:39:05;;;;;;;;;;;10.40;99.90;;;;;;5032733;28;20036;-75
2021/03/13 09:41:30;;;;;;;;;;;10.20;99.90;;;;;;5033258;28;20423;-75
2021/03/13 09:43:56;;;;;;;;;;;10.10;99.90;;;;;;5032103;28;20003;-76
2021/03/13 09:46:23;;;;;;;;;;;9.90;99.90;;;;;;5033237;28;20376;-77
2021/03/13 09:48:49;;;;;;;;;;;9.70;99.90;;;;;;5033521;28;19905;-78
2021/03/13 09:51:14;;;;;;;;;;;9.50;99.90;;;;;;5032638;28;24080;-77
2021/03/13 09:53:41;;;;;;;;;;;9.40;99.90;;;;;;5034532;28;19952;-76
2021/03/13 09:56:07;;;;;;;;;;;9.30;99.90;;;;;;5032919;28;19916;-76
2021/03/13 09:58:33;;;;;;;;;;;9.10;99.90;;;;;;5023808;28;19909;-77
2021/03/13 10:00:58;;;;;;;;;;;9.00;99.90;;;;;;5013110;28;19910;-76
2021/03/13 10:03:24;;;;;;;;;;;9.00;99.90;;;;;;5011356;28;24050;-77
2021/03/13 10:05:51;;;;;;;;;;;9.00;99.90;;;;;;5011933;28;24075;-77
2021/03/13 10:08:18;;;;;;;;;;;9.10;99.90;;;;;;5013406;28;19920;-77
2021/03/13 10:10:44;;;;;;;;;;;9.20;99.90;;;;;;5014344;28;25106;-75
2021/03/13 10:13:12;;;;;;;;;;;9.00;99.90;;;;;;5012206;28;19905;-75
2021/03/13 10:15:38;;;;;;;;;;;8.90;99.90;;;;;;5011404;28;19941;-76
2021/03/13 10:18:10;;;;;;;;;;;8.90;99.90;;;;;;5011572;28;24106;-76
2021/03/13 10:20:45;;;;;;;;;;;8.90;99.90;;;;;;5011434;28;20265;-77
2021/03/13 10:23:28;;;;;;;;;;;8.90;99.90;;;;;;5012766;28;19913;-77
2021/03/13 10:25:53;;;;;;;;;;;8.90;99.90;;;;;;5013087;28;19905;-77
2021/03/13 10:28:19;;;;;;;;;;;9.10;99.90;;;;;;5012121;28;24071;-77
2021/03/13 10:30:45;;;;;;;;;;;9.00;99.90;;;;;;5015089;28;25116;-78
2021/03/13 10:33:14;;;;;;;;;;;9.00;99.90;;;;;;5016651;28;19909;-79
2021/03/13 10:35:40;;;;;;;;;;;9.10;99.90;;;;;;5016555;28;19912;-79
2021/03/13 10:38:05;;;;;;;;;;;9.10;99.90;;;;;;5012428;28;19913;-76
2021/03/13 10:40:30;;;;;;;;;;;9.20;99.90;;;;;;5014146;28;24076;-77
2021/03/13 10:43:12;;;;;;;0.80;0.10;;;9.20;99.90;;;;;;5014228;28;19915;-77
2021/03/13 10:45:38;;;;;;;;;;;9.20;99.90;;;;;;5011530;28;19939;-76
2021/03/13 10:48:04;;;;;;;;;;;9.30;99.90;;;;;;5011347;28;24116;-77
2021/03/13 10:50:30;;;;;;;;;;;9.40;99.90;;;;;;5012100;28;19905;-77
2021/03/13 10:52:55;;;;;;;;;;;9.50;99.90;;;;;;5011236;28;19912;-78
2021/03/13 10:55:36;;;;;;;;;;;9.60;99.90;;;;;;5012514;28;19927;-77
2021/03/13 10:58:02;;;;;;;;;;;9.60;99.90;;;;;;5011603;28;19998;-78
2021/03/13 11:00:27;;;;;;;;;;;9.60;99.90;;;;;;5011252;28;19909;-77
2021/03/13 11:02:53;;;;;;;;;;;9.50;99.90;;;;;;5011342;28;24060;-77
2021/03/13 11:05:18;;;;;;;;;;;9.50;99.90;;;;;;5012939;28;24137;-78
2021/03/13 11:07:44;;;;;;;;;;;9.50;99.90;;;;;;5010777;28;19913;-77
2021/03/13 11:10:10;;;;;;;;;;;9.40;99.90;;;;;;5011712;28;19909;-78
2021/03/13 11:12:35;;;;;;;;;;;9.30;99.90;;;;;;5014726;28;19953;-78
2021/03/13 11:15:01;;;;;;;;;;;;;;;;;;5017830;28;19905;-76
2021/03/13 11:17:27;;;;;;;;;;;;;;;;;;5017443;28;25097;-77
2021/03/13 11:19:52;;;;;;;;;;;9.30;99.90;;;;;;5014628;28;24150;-76
2021/03/13 11:22:18;;;;;;;;;;;9.30;99.90;;;;;;5011894;28;19965;-76
2021/03/13 11:24:43;;;;;;;;;;;9.30;99.90;;;;;;5010353;28;19905;-79
2021/03/13 11:27:09;;;;;;;;;;;9.40;99.90;;;;;;5012182;28;19906;-76
2021/03/13 11:29:34;;;;;;;;;;;9.50;99.90;;;;;;5012040;28;24092;-75
2021/03/13 11:32:00;;;;;;;;;;;9.80;99.90;;;;;;5012294;28;19948;-78
2021/03/13 11:34:28;;;;;;;;;;;9.90;99.90;;;;;;5010983;28;19912;-77
2021/03/13 11:36:54;;;;;;;;;;;9.60;99.90;;;;;;5012195;28;20029;-77
2021/03/13 11:39:20;;;;;;;;;;;9.50;99.90;;;;;;5012007;28;20532;-77
2021/03/13 11:41:45;;;;;;;;;;;9.30;99.90;;;;;;5010811;28;24075;-77
2021/03/13 11:44:11;;;;;;;;;;;9.20;99.90;;;;;;5010726;28;19910;-76
2021/03/13 11:46:37;;;;;;;;;;;9.20;99.90;;;;;;5014063;28;20105;-79
2021/03/13 11:49:02;;;;;;;;;;;8.70;99.90;;;;;;5010368;28;24055;-77
2021/03/13 11:51:28;;;;;;;;;;;8.10;99.90;;;;;;5011684;28;19909;-79
2021/03/13 11:53:53;;;;;;;;;;;7.80;99.90;;;;;;5010201;28;20108;-79
2021/03/13 11:56:19;;;;;;;;;;;7.60;99.90;;;;;;5011176;28;20283;-77
2021/03/13 11:58:44;;;;;;;;;;;7.70;99.90;;;;;;5010830;28;19910;-77
2021/03/13 12:01:10;;;;;;;;;;;7.60;99.90;;;;;;5012423;28;19913;-77
2021/03/13 12:03:35;;;;;;;;;;;7.60;99.90;;;;;;5010428;28;19916;-76
2021/03/13 12:06:01;;;;;;;;;;;7.60;99.90;;;;;;5011607;28;19905;-77
2021/03/13 12:08:26;;;;;;;;;;;7.60;99.90;;;;;;5018733;28;19920;-77
2021/03/13 12:10:52;;;;;;;;;;;7.60;99.90;;;;;;5020173;28;20364;-77
2021/03/13 12:13:17;;;;;;;;;;;7.60;99.90;;;;;;5020876;28;19963;-77
2021/03/13 12:15:43;;;;;;;;;;;7.80;99.90;;;;;;5019407;28;19905;-77
2021/03/13 12:18:08;;;;;;;;;;;8.30;99.90;;;;;;5019714;28;20266;-76
2021/03/13 12:20:34;;;;;;;;;;;8.40;99.90;;;;;;5019644;28;19916;-76
2021/03/13 12:23:03;;;;;;;;;;;8.10;99.90;;;;;;5018708;28;19963;-77
2021/03/13 12:25:29;;;;;;;;;;;8.00;99.90;;;;;;5018760;28;25107;-76
2021/03/13 12:27:54;;;;;;;;;;;8.00;99.90;;;;;;5022685;28;19909;-76
2021/03/13 12:30:20;;;;;;;;;;;8.00;99.90;;;;;;5025849;28;19905;-76
2021/03/13 12:32:48;;;;;;;;;;;8.10;99.90;;;;;;5023625;28;19913;-77
2021/03/13 12:35:14;;;;;;;;;;;8.10;99.90;;;;;;5022815;28;20391;-76
2021/03/13 12:37:40;;;;;;;;;;;8.20;99.90;;;;;;5023573;28;19905;-77
2021/03/13 12:40:06;;;;;;;;;;;8.20;99.90;;;;;;5023548;28;20464;-78
2021/03/13 12:42:32;;;;;;;;;;;8.40;99.90;;;;;;5025445;28;20007;-76
2021/03/13 12:44:57;;;;;;;;;;;8.40;99.90;;;;;;5029211;28;19991;-77
2021/03/13 12:47:23;;;;;;;;;;;8.00;99.90;;;;;;5028664;28;19906;-77
2021/03/13 12:49:48;;;;;;;;;;;7.90;99.90;;;;;;5029546;28;19905;-77
2021/03/13 12:52:13;;;;;;;;;;;7.80;99.90;;;;;;5024463;28;19905;-78
2021/03/13 12:54:39;;;;;;;;;;;7.80;99.90;;;;;;5027674;28;20391;-78
2021/03/13 12:57:05;;;;;;;;;;;7.90;99.90;;;;;;5029660;28;19915;-78
2021/03/13 12:59:30;;;;;;;;;;;7.90;99.90;;;;;;5026472;28;19920;-76
2021/03/13 13:01:56;;;;;;;;;;;7.90;99.90;;;;;;5021095;28;25098;-77
2021/03/13 13:04:21;;;;;;;;;;;7.80;99.90;;;;;;5022529;28;19905;-77
2021/03/13 13:06:47;;;;;;;;;;;8.00;99.90;;;;;;5028677;28;19905;-78
2021/03/13 13:09:12;;;;;;;;;;;8.10;99.90;;;;;;5034105;28;19917;-78
2021/03/13 13:11:38;;;;;;;;;;;8.10;99.90;;;;;;5034245;28;19909;-77
2021/03/13 13:14:05;;;;;;;;;;;8.30;99.90;;;;;;5033962;28;20379;-77
2021/03/13 13:16:31;;;;;;;;;;;8.40;99.90;;;;;;5033395;28;20260;-78
2021/03/13 13:18:56;;;;;;;;;;;8.40;99.90;;;;;;5032984;28;20187;-77
2021/03/13 13:21:22;;;;;;;;;;;8.50;99.90;;;;;;5033033;28;19948;-76
2021/03/13 13:23:47;;;;;;;;;;;8.70;99.90;;;;;;5033097;28;19919;-77
2021/03/13 13:26:13;;;;;;;;;;;8.70;99.90;;;;;;5035027;28;19913;-75
2021/03/13 13:28:38;;;;;;;;;;;9.00;99.90;;;;;;5032263;28;19909;-77
2021/03/13 13:31:04;;;;;;;;;;;9.10;99.90;;;;;;5033214;28;24131;-76
2021/03/13 13:33:29;;;;;;;;;;;9.00;99.90;;;;;;5033303;28;19932;-77
2021/03/13 13:35:55;;;;;;;;;;;8.70;99.90;;;;;;5033561;28;19911;-77
2021/03/13 13:38:20;;;;;;;;;;;8.90;99.90;;;;;;5030887;28;24085;-77
2021/03/13 13:40:46;;;;;;;;;;;9.10;99.90;;;;;;5033188;28;20400;-76
2021/03/13 13:43:11;;;;;;;;;;;9.20;99.90;;;;;;5032257;28;20012;-74
2021/03/13 13:45:37;;;;;;;;;;;9.40;99.90;;;;;;5034258;28;19988;-77
2021/03/13 13:48:03;;;;;;;;;;;9.30;99.90;;;;;;5032870;28;20492;-77
2021/03/13 13:50:29;;;;;;;;;;;9.30;99.90;;;;;;5033179;28;19909;-78
2021/03/13 13:52:54;;;;;;;;;;;9.20;99.90;;;;;;5035855;28;20042;-80
2021/03/13 13:55:20;;;;;;;;;;;9.10;99.90;;;;;;5034800;28;20114;-78
2021/03/13 13:57:46;;;;;;;;;;;9.00;99.90;;;;;;5032617;28;19980;-77
2021/03/13 14:00:13;;;;;;;;;;;8.80;99.90;;;;;;5032476;28;20180;-78
2021/03/13 14:02:39;;;;;;;;;;;8.70;99.90;;;;;;5032508;28;19909;-79
2021/03/13 14:05:06;;;;;;;;;;;8.60;99.90;;;;;;5041687;28;19936;-78
2021/03/13 14:07:31;;;;;;;;;;;8.50;99.90;;;;;;5045700;28;19972;-79
2021/03/13 14:09:56;;;;;;;;;;;8.80;99.90;;;;;;5043810;28;19908;-77
2021/03/13 14:12:22;;;;;;;;;;;8.90;99.90;;;;;;5035268;28;24105;-81
2021/03/13 14:14:47;;;;;;;;;;;8.80;99.90;;;;;;5032339;28;19909;-77
2021/03/13 14:17:13;;;;;;;;;;;9.00;99.90;;;;;;5033208;28;19905;-77
2021/03/13 14:19:38;;;;;;;;;;;9.00;99.90;;;;;;5031782;28;20347;-79
2021/03/13 14:22:04;;;;;;;;;;;9.00;99.90;;;;;;5031203;28;19912;-77
2021/03/13 14:24:29;;;;;;;;;;;8.90;99.90;;;;;;5031136;28;19927;-76
2021/03/13 14:26:55;;;;;;;;;;;8.70;99.90;;;;;;5032642;28;19949;-76